createdAt,value
2023-05-01T00:02:23.760Z,1.75
2023-05-01T00:04:52.132Z,1.85
2023-05-01T00:07:19.408Z,2.38
2023-05-01T00:09:46.630Z,2.03
2023-05-01T00:12:14.144Z,2.20
2023-05-01T00:14:42.108Z,2.20
2023-05-01T00:17:09.769Z,2.90
2023-05-01T00:19:37.076Z,2.38
2023-05-01T00:22:04.373Z,2.10
2023-05-01T00:24:31.575Z,2.00
2023-05-01T00:26:59.009Z,2.35
2023-05-01T00:29:26.383Z,2.50
2023-05-01T00:31:55.057Z,1.92
2023-05-01T00:34:22.366Z,2.13
2023-05-01T00:36:50.007Z,2.70
2023-05-01T00:39:17.518Z,2.53
2023-05-01T00:41:44.749Z,1.90
2023-05-01T00:44:12.091Z,1.58
2023-05-01T00:46:39.364Z,2.28
2023-05-01T00:49:06.762Z,3.25
2023-05-01T00:51:34.261Z,3.05
2023-05-01T00:54:02.673Z,3.28
2023-05-01T00:56:31.510Z,3.85
2023-05-01T00:58:59.887Z,3.63
2023-05-01T01:01:28.691Z,2.42
2023-05-01T01:03:56.577Z,2.75
2023-05-01T01:06:32.773Z,2.47
2023-05-01T01:09:27.306Z,4.82
2023-05-01T01:12:22.753Z,8.95
2023-05-01T01:15:08.154Z,12.55
2023-05-01T01:17:48.702Z,16.35
2023-05-01T01:21:05.817Z,15.30
2023-05-01T01:23:56.270Z,10.80
2023-05-01T01:26:35.531Z,6.82
2023-05-01T01:29:26.487Z,6.07
2023-05-01T01:32:03.828Z,3.45
2023-05-01T01:34:36.542Z,3.55
2023-05-01T01:37:17.473Z,3.03
2023-05-01T01:39:48.858Z,3.92
2023-05-01T01:42:20.536Z,4.63
2023-05-01T01:45:02.971Z,4.40
2023-05-01T01:47:33.159Z,4.07
2023-05-01T01:50:05.036Z,3.70
2023-05-01T01:52:33.323Z,2.55
2023-05-01T01:55:13.348Z,2.40
2023-05-01T01:57:43.889Z,2.42
2023-05-01T02:00:13.260Z,1.67
2023-05-01T02:02:41.523Z,1.50
2023-05-01T02:05:13.400Z,2.20
2023-05-01T02:07:41.685Z,1.75
2023-05-01T02:10:12.957Z,1.45
2023-05-01T02:12:42.484Z,2.00
2023-05-01T02:17:39.708Z,2.15
2023-05-01T02:20:09.445Z,1.60
2023-05-01T02:22:37.714Z,2.60
2023-05-01T02:25:07.212Z,2.50
2023-05-01T02:30:05.488Z,2.15
2023-05-01T02:32:32.951Z,3.00
2023-05-01T02:35:00.340Z,3.45
2023-05-01T02:37:28.362Z,2.38
2023-05-01T02:39:55.930Z,3.08
2023-05-01T02:42:26.050Z,2.38
2023-05-01T02:45:06.538Z,1.70
2023-05-01T02:47:37.949Z,1.92
2023-05-01T02:50:07.838Z,1.63
2023-05-01T02:52:36.240Z,1.92
2023-05-01T02:55:26.732Z,1.33
2023-05-01T02:57:57.446Z,1.88
2023-05-01T03:00:24.704Z,0.98
2023-05-01T03:02:52.055Z,1.48
2023-05-01T03:05:19.820Z,1.40
2023-05-01T03:07:47.356Z,1.45
2023-05-01T03:10:14.712Z,1.55
2023-05-01T03:12:41.911Z,0.45
2023-05-01T03:15:09.632Z,0.90
2023-05-01T03:17:36.864Z,1.15
2023-05-01T03:20:06.268Z,1.98
2023-05-01T03:22:33.618Z,1.40
2023-05-01T03:25:01.541Z,1.73
2023-05-01T03:27:28.841Z,0.73
2023-05-01T03:29:56.268Z,0.98
2023-05-01T03:32:25.087Z,2.03
2023-05-01T03:34:53.982Z,1.15
2023-05-01T03:37:21.953Z,1.85
2023-05-01T03:39:49.942Z,1.48
2023-05-01T03:42:39.935Z,1.88
2023-05-01T03:45:14.141Z,1.33
2023-05-01T03:47:41.544Z,1.30
2023-05-01T03:50:09.489Z,1.00
2023-05-01T03:52:38.906Z,1.20
2023-05-01T03:55:07.470Z,1.20
2023-05-01T03:57:40.780Z,1.73
2023-05-01T04:00:09.616Z,1.52
2023-05-01T04:02:42.577Z,2.00
2023-05-01T04:05:14.460Z,1.15
2023-05-01T04:07:46.380Z,1.20
2023-05-01T04:10:13.660Z,1.63
2023-05-01T04:12:48.117Z,1.48
2023-05-01T04:15:15.700Z,2.08
2023-05-01T04:17:44.213Z,1.17
2023-05-01T04:20:12.339Z,1.83
2023-05-01T04:22:39.702Z,1.27
2023-05-01T04:25:08.907Z,2.22
2023-05-01T04:27:36.170Z,1.35
2023-05-01T04:30:03.556Z,1.35
2023-05-01T04:32:32.018Z,0.88
2023-05-01T04:34:59.918Z,1.08
2023-05-01T04:37:27.774Z,1.33
2023-05-01T04:39:55.731Z,1.75
2023-05-01T04:42:30.915Z,1.77
2023-05-01T04:45:01.591Z,1.40
2023-05-01T04:47:28.973Z,1.13
2023-05-01T04:49:56.451Z,1.25
2023-05-01T04:52:23.842Z,1.73
2023-05-01T04:54:55.627Z,1.38
2023-05-01T04:57:24.361Z,1.45
2023-05-01T04:59:51.674Z,1.88
2023-05-01T05:02:18.929Z,2.28
2023-05-01T05:04:46.167Z,1.98
2023-05-01T05:07:13.400Z,1.67
2023-05-01T05:10:00.665Z,1.15
2023-05-01T05:12:27.944Z,1.45
2023-05-01T05:14:55.316Z,2.13
2023-05-01T05:17:22.597Z,2.08
2023-05-01T05:19:49.934Z,1.60
2023-05-01T05:22:17.276Z,2.28
2023-05-01T05:25:06.862Z,1.83
2023-05-01T05:27:38.011Z,2.08
2023-05-01T05:30:06.928Z,1.70
2023-05-01T05:32:35.678Z,2.08
2023-05-01T05:35:03.673Z,1.98
2023-05-01T05:37:30.911Z,1.38
2023-05-01T05:39:58.408Z,1.50
2023-05-01T05:42:26.489Z,1.73
2023-05-01T05:44:55.994Z,1.88
2023-05-01T05:49:50.434Z,1.73
2023-05-01T05:52:21.415Z,2.28
2023-05-01T05:54:49.063Z,2.30
2023-05-01T05:57:16.337Z,1.85
2023-05-01T05:59:49.188Z,1.90
2023-05-01T06:02:19.117Z,2.25
2023-05-01T06:04:46.604Z,2.00
2023-05-01T06:07:15.277Z,2.05
2023-05-01T06:09:42.572Z,2.20
2023-05-01T06:12:09.797Z,2.20
2023-05-01T06:14:37.856Z,2.47
2023-05-01T06:17:06.220Z,2.88
2023-05-01T06:19:33.860Z,2.50
2023-05-01T06:22:07.796Z,1.98
2023-05-01T06:24:40.560Z,2.58
2023-05-01T06:27:09.774Z,2.38
2023-05-01T06:29:37.027Z,2.00
2023-05-01T06:32:05.035Z,2.55
2023-05-01T06:34:32.831Z,3.15
2023-05-01T06:37:00.361Z,3.50
2023-05-01T06:39:27.683Z,3.70
2023-05-01T06:41:55.339Z,3.35
2023-05-01T06:44:32.852Z,3.88
2023-05-01T06:47:02.122Z,3.42
2023-05-01T06:49:29.444Z,3.45
2023-05-01T06:51:56.654Z,4.10
2023-05-01T06:54:24.041Z,3.80
2023-05-01T06:56:51.315Z,3.88
2023-05-01T06:59:18.684Z,4.30
2023-05-01T07:01:46.047Z,4.20
2023-05-01T07:04:13.351Z,4.18
2023-05-01T07:06:40.667Z,4.32
2023-05-01T07:09:07.990Z,5.20
2023-05-01T07:11:35.289Z,5.55
2023-05-01T07:14:02.554Z,5.45
2023-05-01T07:16:29.944Z,5.10
2023-05-01T07:18:57.565Z,4.85
2023-05-01T07:21:25.028Z,6.47
2023-05-01T07:23:52.257Z,7.72
2023-05-01T07:26:19.850Z,7.80
2023-05-01T07:28:47.063Z,8.18
2023-05-01T07:31:14.242Z,8.77
2023-05-01T07:33:42.382Z,8.65
2023-05-01T07:36:09.612Z,8.98
2023-05-01T07:38:37.084Z,9.35
2023-05-01T07:41:04.353Z,9.38
2023-05-01T07:43:31.706Z,8.63
2023-05-01T07:46:00.774Z,9.85
2023-05-01T07:48:28.836Z,10.05
2023-05-01T07:50:57.030Z,9.23
2023-05-01T07:53:24.435Z,9.38
2023-05-01T07:55:51.721Z,9.20
2023-05-01T07:58:19.248Z,9.13
2023-05-01T08:00:46.505Z,9.98
2023-05-01T08:03:13.935Z,10.13
2023-05-01T08:05:42.123Z,10.38
2023-05-01T08:08:09.817Z,11.05
2023-05-01T08:10:37.130Z,10.43
2023-05-01T08:13:04.497Z,11.45
2023-05-01T08:15:31.780Z,10.82
2023-05-01T08:17:59.061Z,9.70
2023-05-01T08:20:26.431Z,9.70
2023-05-01T08:22:53.682Z,11.32
2023-05-01T08:25:20.922Z,10.60
2023-05-01T08:27:49.462Z,10.90
2023-05-01T08:30:16.650Z,10.85
2023-05-01T08:32:43.962Z,10.45
2023-05-01T08:35:11.671Z,10.27
2023-05-01T08:37:39.036Z,11.70
2023-05-01T08:40:08.980Z,11.43
2023-05-01T08:42:39.513Z,10.70
2023-05-01T08:45:11.622Z,10.40
2023-05-01T08:47:40.531Z,9.77
2023-05-01T08:50:11.834Z,10.32
2023-05-01T08:52:45.597Z,10.00
2023-05-01T08:55:15.145Z,11.55
2023-05-01T08:57:46.733Z,11.43
2023-05-01T09:00:20.889Z,11.05
2023-05-01T09:02:50.269Z,10.65
2023-05-01T09:05:21.073Z,10.45
2023-05-01T09:07:48.764Z,11.63
2023-05-01T09:10:20.486Z,10.95
2023-05-01T09:12:52.581Z,10.68
2023-05-01T09:15:20.120Z,11.10
2023-05-01T09:17:48.045Z,11.70
2023-05-01T09:20:18.479Z,11.27
2023-05-01T09:22:50.516Z,12.82
2023-05-01T09:25:19.180Z,10.50
2023-05-01T09:27:46.445Z,9.95
2023-05-01T09:30:34.589Z,10.20
2023-05-01T09:33:10.061Z,9.65
2023-05-01T09:35:58.933Z,9.25
2023-05-01T09:38:27.789Z,9.50
2023-05-01T09:41:03.235Z,9.10
2023-05-01T09:43:31.550Z,8.63
2023-05-01T09:46:10.438Z,8.43
2023-05-01T09:48:38.786Z,8.75
2023-05-01T09:51:35.504Z,8.30
2023-05-01T09:54:04.922Z,8.48
2023-05-01T09:56:34.124Z,7.22
2023-05-01T09:59:21.250Z,8.02
2023-05-01T10:01:50.531Z,8.07
2023-05-01T10:04:29.376Z,7.10
2023-05-01T10:06:57.106Z,7.45
2023-05-01T10:09:30.554Z,7.68
2023-05-01T10:11:58.980Z,6.90
2023-05-01T10:14:30.396Z,6.93
2023-05-01T10:16:57.954Z,6.75
2023-05-01T10:19:25.857Z,6.20
2023-05-01T10:21:53.464Z,6.22
2023-05-01T10:24:21.061Z,7.22
2023-05-01T10:26:52.093Z,6.70
2023-05-01T10:29:23.185Z,5.25
2023-05-01T10:31:50.658Z,6.00
2023-05-01T10:34:22.141Z,5.95
2023-05-01T10:37:02.777Z,6.22
2023-05-01T10:39:35.132Z,6.38
2023-05-01T10:42:11.046Z,5.53
2023-05-01T10:44:38.707Z,4.97
2023-05-01T10:47:24.344Z,5.40
2023-05-01T10:50:11.991Z,5.43
2023-05-01T10:53:14.302Z,4.97
2023-05-01T10:55:43.490Z,5.18
2023-05-01T10:58:11.912Z,4.07
2023-05-01T11:00:39.267Z,5.70
2023-05-01T11:03:21.951Z,5.60
2023-05-01T11:06:04.823Z,5.15
2023-05-01T11:08:33.751Z,4.65
2023-05-01T11:11:19.795Z,4.75
2023-05-01T11:14:10.920Z,4.32
2023-05-01T11:16:38.839Z,4.57
2023-05-01T11:19:21.560Z,4.18
2023-05-01T11:21:50.440Z,4.10
2023-05-01T11:24:18.560Z,4.55
2023-05-01T11:26:47.349Z,5.25
2023-05-01T11:29:14.631Z,4.53
2023-05-01T11:31:42.009Z,4.68
2023-05-01T11:34:09.857Z,4.70
2023-05-01T11:36:49.356Z,4.65
2023-05-01T11:39:19.974Z,5.10
2023-05-01T11:41:47.786Z,4.53
2023-05-01T11:44:17.436Z,5.10
2023-05-01T11:46:44.797Z,4.85
2023-05-01T11:49:12.245Z,4.45
2023-05-01T11:51:39.612Z,5.03
2023-05-01T11:54:15.067Z,4.88
2023-05-01T11:56:43.175Z,4.40
2023-05-01T11:59:12.684Z,4.63
2023-05-01T12:01:41.258Z,5.03
2023-05-01T12:04:09.039Z,4.70
2023-05-01T12:06:44.861Z,4.82
2023-05-01T12:09:20.549Z,4.25
2023-05-01T12:11:52.414Z,4.13
2023-05-01T12:14:24.558Z,4.50
2023-05-01T12:16:52.092Z,5.55
2023-05-01T12:19:21.025Z,4.50
2023-05-01T12:21:48.954Z,3.92
2023-05-01T12:24:18.225Z,4.63
2023-05-01T12:26:46.430Z,4.88
2023-05-01T12:29:14.782Z,4.68
2023-05-01T12:31:48.109Z,4.47
2023-05-01T12:34:15.555Z,4.05
2023-05-01T12:36:52.168Z,5.70
2023-05-01T12:39:21.390Z,4.13
2023-05-01T12:41:49.614Z,4.20
2023-05-01T12:44:22.456Z,13.32
2023-05-01T12:47:04.807Z,5.13
2023-05-01T12:49:32.549Z,3.97
2023-05-01T12:52:00.929Z,4.65
2023-05-01T12:57:16.646Z,4.38
2023-05-01T12:59:49.533Z,3.97
2023-05-01T13:02:18.247Z,3.90
2023-05-01T13:04:48.940Z,3.45
2023-05-01T13:07:20.447Z,3.90
2023-05-01T13:09:55.346Z,4.10
2023-05-01T13:12:24.252Z,4.38
2023-05-01T13:14:51.909Z,3.42
2023-05-01T13:17:32.686Z,4.00
2023-05-01T13:20:02.978Z,3.83
2023-05-01T13:22:35.923Z,3.95
2023-05-01T13:25:05.570Z,4.60
2023-05-01T13:27:33.032Z,4.10
2023-05-01T13:30:01.082Z,3.67
2023-05-01T13:32:28.685Z,4.03
2023-05-01T13:35:00.451Z,3.80
2023-05-01T13:37:28.326Z,4.00
2023-05-01T13:39:59.568Z,4.20
2023-05-01T13:42:26.999Z,4.10
2023-05-01T13:44:56.760Z,4.20
2023-05-01T13:47:26.473Z,3.90
2023-05-01T13:49:54.169Z,4.15
2023-05-01T13:52:21.853Z,3.72
2023-05-01T13:54:49.449Z,3.45
2023-05-01T13:57:17.228Z,3.40
2023-05-01T13:59:47.016Z,3.20
2023-05-01T14:02:28.254Z,3.55
2023-05-01T14:04:57.625Z,3.67
2023-05-01T14:07:26.777Z,3.58
2023-05-01T14:09:56.076Z,3.38
2023-05-01T14:12:31.415Z,3.47
2023-05-01T14:15:02.955Z,3.03
2023-05-01T14:17:32.686Z,2.97
2023-05-01T14:20:00.633Z,3.40
2023-05-01T14:22:54.149Z,3.97
2023-05-01T14:25:31.217Z,3.60
2023-05-01T14:28:00.932Z,3.10
2023-05-01T14:30:33.521Z,3.72
2023-05-01T14:33:08.553Z,3.38
2023-05-01T14:35:39.099Z,2.95
2023-05-01T14:38:14.721Z,2.75
2023-05-01T14:40:42.512Z,2.92
2023-05-01T14:43:15.943Z,2.90
2023-05-01T14:45:45.312Z,3.20
2023-05-01T14:48:24.368Z,3.00
2023-05-01T14:50:52.947Z,2.75
2023-05-01T14:53:20.439Z,2.83
2023-05-01T14:55:51.088Z,2.80
2023-05-01T14:58:18.411Z,3.33
2023-05-01T15:00:46.137Z,3.20
2023-05-01T15:03:13.513Z,2.90
2023-05-01T15:05:41.858Z,3.50
2023-05-01T15:08:09.309Z,3.40
2023-05-01T15:10:37.648Z,3.38
2023-05-01T15:13:06.087Z,3.45
2023-05-01T15:18:00.692Z,2.90
2023-05-01T15:20:28.199Z,3.00
2023-05-01T15:22:55.850Z,2.58
2023-05-01T15:25:25.217Z,2.90
2023-05-01T15:27:52.469Z,2.92
2023-05-01T15:30:19.680Z,3.40
2023-05-01T15:32:47.300Z,3.15
2023-05-01T15:35:15.071Z,3.15
2023-05-01T15:37:42.353Z,4.03
2023-05-01T15:40:20.936Z,3.72
2023-05-01T15:42:48.264Z,3.15
2023-05-01T15:45:15.620Z,3.60
2023-05-01T15:47:43.036Z,3.60
2023-05-01T15:50:11.930Z,3.40
2023-05-01T15:52:39.766Z,2.80
2023-05-01T15:55:07.451Z,3.38
2023-05-01T15:57:35.160Z,3.40
2023-05-01T16:00:03.040Z,3.10
2023-05-01T16:02:32.749Z,2.85
2023-05-01T16:05:00.636Z,2.90
2023-05-01T16:07:31.438Z,3.10
2023-05-01T16:09:59.081Z,2.75
2023-05-01T16:12:29.773Z,2.40
2023-05-01T16:14:57.194Z,2.50
2023-05-01T16:17:24.603Z,2.03
2023-05-01T16:19:55.133Z,2.35
2023-05-01T16:22:22.500Z,2.38
2023-05-01T16:24:49.759Z,2.47
2023-05-01T16:27:18.234Z,2.40
2023-05-01T16:29:45.519Z,2.53
2023-05-01T16:32:14.166Z,3.10
2023-05-01T16:34:43.059Z,2.60
2023-05-01T16:37:13.623Z,2.80
2023-05-01T16:39:41.057Z,2.20
2023-05-01T16:42:12.586Z,2.38
2023-05-01T16:44:40.288Z,2.45
2023-05-01T16:47:10.893Z,2.47
2023-05-01T16:49:42.470Z,2.53
2023-05-01T16:52:14.218Z,1.92
2023-05-01T16:54:41.611Z,2.60
2023-05-01T16:57:09.186Z,2.20
2023-05-01T16:59:37.740Z,2.13
2023-05-01T17:02:05.955Z,1.80
2023-05-01T17:04:33.523Z,2.60
2023-05-01T17:07:00.980Z,2.65
2023-05-01T17:09:28.261Z,2.15
2023-05-01T17:11:56.905Z,2.13
2023-05-01T17:14:24.571Z,2.35
2023-05-01T17:16:52.930Z,2.00
2023-05-01T17:21:47.591Z,1.98
2023-05-01T17:24:14.970Z,2.05
2023-05-01T17:26:42.407Z,2.40
2023-05-01T17:29:09.654Z,2.10
2023-05-01T17:31:37.032Z,2.40
2023-05-01T17:34:04.363Z,2.42
2023-05-01T17:36:32.151Z,1.70
2023-05-01T17:39:01.620Z,1.65
2023-05-01T17:41:29.014Z,2.00
2023-05-01T17:43:56.318Z,1.90
2023-05-01T17:46:23.600Z,2.75
2023-05-01T17:48:50.923Z,2.10
2023-05-01T17:51:18.259Z,2.03
2023-05-01T17:53:45.760Z,3.80
2023-05-01T17:56:13.152Z,1.85
2023-05-01T17:58:42.161Z,1.95
2023-05-01T18:01:10.370Z,1.90
2023-05-01T18:03:38.081Z,1.55
2023-05-01T18:06:05.912Z,2.05
2023-05-01T18:08:33.202Z,2.00
2023-05-01T18:11:00.646Z,2.20
2023-05-01T18:13:30.556Z,2.10
2023-05-01T18:15:57.911Z,1.95
2023-05-01T18:18:25.422Z,2.53
2023-05-01T18:20:52.738Z,2.25
2023-05-01T18:23:20.373Z,2.00
2023-05-01T18:25:47.677Z,2.50
2023-05-01T18:28:16.757Z,1.90
2023-05-01T18:30:44.714Z,2.40
2023-05-01T18:33:12.887Z,2.47
2023-05-01T18:35:45.668Z,2.53
2023-05-01T18:38:28.376Z,2.63
2023-05-01T18:40:58.671Z,2.47
2023-05-01T18:43:27.452Z,2.38
2023-05-01T18:48:23.016Z,2.03
2023-05-01T18:51:06.659Z,2.80
2023-05-01T18:53:35.121Z,2.90
2023-05-01T18:56:02.554Z,2.58
2023-05-01T18:58:31.028Z,2.60
2023-05-01T19:00:58.378Z,2.45
2023-05-01T19:03:25.791Z,3.13
2023-05-01T19:05:53.048Z,2.35
2023-05-01T19:08:20.324Z,2.38
2023-05-01T19:10:47.672Z,2.60
2023-05-01T19:13:15.004Z,2.47
2023-05-01T19:15:43.551Z,2.78
2023-05-01T19:18:11.019Z,2.78
2023-05-01T19:20:38.643Z,2.53
2023-05-01T19:23:05.889Z,1.90
2023-05-01T19:25:34.232Z,2.88
2023-05-01T19:28:02.113Z,3.13
2023-05-01T19:30:30.079Z,2.70
2023-05-01T19:33:00.276Z,2.22
2023-05-01T19:35:27.825Z,2.50
2023-05-01T19:37:56.423Z,2.10
2023-05-01T19:40:23.957Z,4.50
2023-05-01T19:42:51.847Z,5.05
2023-05-01T19:45:19.116Z,3.50
2023-05-01T19:47:46.498Z,3.08
2023-05-01T19:50:16.540Z,2.70
2023-05-01T19:52:43.817Z,2.65
2023-05-01T19:55:12.920Z,2.50
2023-05-01T19:57:40.493Z,2.60
2023-05-01T20:00:08.668Z,3.20
2023-05-01T20:02:39.289Z,2.65
2023-05-01T20:05:07.132Z,2.38
2023-05-01T20:07:35.013Z,3.00
2023-05-01T20:10:02.303Z,2.30
2023-05-01T20:12:29.688Z,2.30
2023-05-01T20:14:58.770Z,2.30
2023-05-01T20:17:27.207Z,2.55
2023-05-01T20:19:54.605Z,2.55
2023-05-01T20:22:21.865Z,2.80
2023-05-01T20:24:49.126Z,2.63
2023-05-01T20:27:16.389Z,2.85
2023-05-01T20:29:43.968Z,2.63
2023-05-01T20:32:11.543Z,3.15
2023-05-01T20:34:38.830Z,2.97
2023-05-01T20:37:07.136Z,3.60
2023-05-01T20:39:34.423Z,3.22
2023-05-01T20:42:01.670Z,2.63
2023-05-01T20:44:28.861Z,2.60
2023-05-01T20:46:56.228Z,2.63
2023-05-01T20:49:24.706Z,2.47
2023-05-01T20:51:52.231Z,3.22
2023-05-01T20:54:19.536Z,2.50
2023-05-01T20:56:46.728Z,2.33
2023-05-01T20:59:13.994Z,2.97
2023-05-01T21:01:45.478Z,2.20
2023-05-01T21:04:13.138Z,2.50
2023-05-01T21:06:41.208Z,2.40
2023-05-01T21:09:11.073Z,2.10
2023-05-01T21:11:42.213Z,2.42
2023-05-01T21:14:11.242Z,2.58
2023-05-01T21:16:39.751Z,2.90
2023-05-01T21:19:07.743Z,2.97
2023-05-01T21:21:37.707Z,3.30
2023-05-01T21:24:06.613Z,2.72
2023-05-01T21:29:02.741Z,2.92
2023-05-01T21:31:36.768Z,2.88
2023-05-01T21:34:05.464Z,3.03
2023-05-01T21:36:33.018Z,3.08
2023-05-01T21:39:01.755Z,3.28
2023-05-01T21:41:32.173Z,3.45
2023-05-01T21:44:04.371Z,2.90
2023-05-01T21:46:31.702Z,3.67
2023-05-01T21:48:59.045Z,2.85
2023-05-01T21:51:31.777Z,2.97
2023-05-01T21:54:04.265Z,3.55
2023-05-01T21:56:31.926Z,2.90
2023-05-01T21:59:05.532Z,3.22
2023-05-01T22:01:32.887Z,2.63
2023-05-01T22:04:00.298Z,2.25
2023-05-01T22:06:28.216Z,2.65
2023-05-01T22:08:55.541Z,2.33
2023-05-01T22:11:23.226Z,2.63
2023-05-01T22:13:50.545Z,2.53
2023-05-01T22:16:17.792Z,2.50
2023-05-01T22:18:48.052Z,2.58
2023-05-01T22:21:17.178Z,2.72
2023-05-01T22:23:44.354Z,2.10
2023-05-01T22:26:11.542Z,2.50
2023-05-01T22:28:38.803Z,2.58
2023-05-01T22:31:06.031Z,2.47
2023-05-01T22:33:33.231Z,2.90
2023-05-01T22:36:00.535Z,3.58
2023-05-01T22:38:27.750Z,2.85
2023-05-01T22:40:54.976Z,3.05
2023-05-01T22:43:22.192Z,3.00
2023-05-01T22:45:49.679Z,2.60
2023-05-01T22:48:17.027Z,3.20
2023-05-01T22:50:44.809Z,3.25
2023-05-01T22:53:12.058Z,2.90
2023-05-01T22:55:39.338Z,3.30
2023-05-01T22:58:06.618Z,2.90
2023-05-01T23:00:33.819Z,2.45
2023-05-01T23:03:01.031Z,2.60
2023-05-01T23:05:28.505Z,2.95
2023-05-01T23:07:55.687Z,2.97
2023-05-01T23:10:26.308Z,3.10
2023-05-01T23:12:53.627Z,3.13
2023-05-01T23:15:25.335Z,3.42
2023-05-01T23:17:52.978Z,3.05
2023-05-01T23:20:25.263Z,3.50
2023-05-01T23:22:52.507Z,3.13
2023-05-01T23:25:26.449Z,3.45
2023-05-01T23:27:55.245Z,2.80
2023-05-01T23:30:22.801Z,2.78
2023-05-01T23:32:50.156Z,2.80
2023-05-01T23:35:23.775Z,3.15
2023-05-01T23:37:52.916Z,2.90
2023-05-01T23:40:20.271Z,3.00
2023-05-01T23:42:48.112Z,3.00
2023-05-01T23:45:16.629Z,3.05
2023-05-01T23:47:43.881Z,2.70
2023-05-01T23:50:11.384Z,3.00
2023-05-01T23:52:39.305Z,2.50
2023-05-01T23:55:06.699Z,2.60
2023-05-01T23:57:35.058Z,2.67
